Time;durP1;ratioP1;P1;durP2;ratioP2;P2;SDS_P1;SDS_P2;PMS_P1;PMS_P2;Temp;Humidity;BMP_temperature;BMP_pressure;BME280_temperature;BME280_humidity;BME280_pressure;Samples;Min_cycle;Max_cycle;Signal;HPM_P1;HPM_P2
2023/12/17 00:00:03;;;;;;;20.30;10.70;;;;;;;7.07;100.00;102003.02;109686;1266;23635;-79
2023/12/17 00:02:36;;;;;;;19.80;10.50;;;;;;;7.08;100.00;101994.02;109990;1266;21985;-78
2023/12/17 00:05:07;;;;;;;;;;;;;;;7.10;100.00;101988.30;110007;1266;22161;-78
2023/12/17 00:07:46;;;;;;;18.70;10.10;;;;;;;7.01;100.00;101986.72;110022;1255;23124;-84
2023/12/17 00:10:22;;;;;;;21.00;11.60;;;;;;;7.00;100.00;101980.14;110003;1269;23032;-80
2023/12/17 00:13:09;;;;;;;;;;;;;;;;;;;;;
2023/12/17 00:16:13;;;;;;;19.00;10.90;;;;;;;7.05;100.00;101961.96;110417;1265;22009;-80
2023/12/17 00:18:53;;;;;;;21.20;12.10;;;;;;;7.08;100.00;101964.75;110606;1259;21968;-80
2023/12/17 00:21:45;;;;;;;18.30;10.30;;;;;;;7.13;100.00;101967.02;110784;1253;21970;-79
2023/12/17 00:24:42;;;;;;;;;;;;;;;;;;;;;
2023/12/17 00:27:36;;;;;;;19.20;10.40;;;;;;;7.20;100.00;101979.16;110934;1259;23714;-81
2023/12/17 00:30:32;;;;;;;20.10;10.00;;;;;;;7.26;100.00;101982.11;111270;1254;23737;-82
2023/12/17 00:33:20;;;;;;;17.30;10.90;;;;;;;7.31;100.00;101990.78;111068;1254;24506;-80
2023/12/17 00:36:00;;;;;;;20.80;10.30;;;;;;;7.36;100.00;101989.92;111134;1251;23036;-79
2023/12/17 00:38:32;;;;;;;21.40;10.90;;;;;;;7.38;100.00;101981.44;111032;1254;21984;-78
2023/12/17 00:41:04;;;;;;;13.90;9.40;;;;;;;7.39;100.00;101971.56;110475;1261;21970;-78
2023/12/17 00:43:36;;;;;;;17.10;10.90;;;;;;;7.39;100.00;101957.18;110764;1261;23199;-79
2023/12/17 00:46:07;;;;;;;20.00;10.50;;;;;;;7.40;100.00;101956.66;110540;1261;21973;-78
2023/12/17 00:48:47;;;;;;;18.00;10.20;;;;;;;7.41;100.00;101969.48;110485;1261;23674;-78
2023/12/17 00:51:22;;;;;;;17.50;9.60;;;;;;;7.39;100.00;101964.80;109953;1267;21979;-78
2023/12/17 00:53:54;;;;;;;19.30;10.40;;;;;;;7.40;100.00;101964.98;109784;1266;21993;-78
2023/12/17 00:56:27;;;;;;;;;;;;;;;7.38;100.00;101961.52;109772;1267;23875;-77
2023/12/17 00:59:00;;;;;;;18.10;11.40;;;;;;;7.27;100.00;101968.60;109526;1266;22437;-79
2023/12/17 01:01:35;;;;;;;16.90;10.60;;;;;;;7.26;100.00;101978.48;110244;1265;23028;-79
2023/12/17 01:04:06;;;;;;;18.10;10.40;;;;;;;7.28;100.00;101978.14;110021;1265;22013;-78
2023/12/17 01:06:44;;;;;;;13.40;10.20;;;;;;;7.29;100.00;101976.75;110160;1265;21970;-78
2023/12/17 01:09:15;;;;;;;15.50;10.00;;;;;;;7.31;100.00;101975.54;110056;1260;21970;-80
2023/12/17 01:11:48;;;;;;;22.30;11.40;;;;;;;7.32;100.00;101971.04;110567;1260;22031;-78
2023/12/17 01:14:18;;;;;;;20.20;12.60;;;;;;;7.32;100.00;101976.76;110380;1260;23354;-80
2023/12/17 01:16:52;;;;;;;22.60;11.60;;;;;;;7.32;100.00;101977.45;110719;1255;21957;-80
2023/12/17 01:19:22;;;;;;;;;;;;;;;7.33;100.00;101975.36;110847;1254;21989;-80
2023/12/17 01:21:57;;;;;;;16.40;9.70;;;;;;;7.22;100.00;101965.65;110552;1260;23717;-77
2023/12/17 01:24:27;;;;;;;17.40;11.20;;;;;;;7.21;100.00;101967.89;110571;1260;21979;-79
2023/12/17 01:27:02;;;;;;;23.50;11.50;;;;;;;7.27;100.00;101971.89;110562;1260;21964;-81
2023/12/17 01:29:32;;;;;;;17.90;10.00;;;;;;;7.32;100.00;101973.98;109952;1267;23697;-79
2023/12/17 01:32:09;;;;;;;16.00;9.80;;;;;;;7.33;100.00;101964.11;109994;1266;21989;-78
2023/12/17 01:34:41;;;;;;;19.20;10.90;;;;;;;7.35;100.00;101966.70;109697;1266;21988;-78
2023/12/17 01:37:16;;;;;;;19.00;10.90;;;;;;;7.37;100.00;101975.36;109618;1266;21971;-77
2023/12/17 01:39:48;;;;;;;16.10;10.50;;;;;;;7.39;100.00;101972.09;109225;1267;22700;-79
2023/12/17 01:42:24;;;;;;;19.90;11.30;;;;;;;7.40;100.00;101963.42;109171;1271;21996;-79
2023/12/17 01:45:00;;;;;;;20.10;12.00;;;;;;;7.40;100.00;101963.26;109360;1271;22927;-78
2023/12/17 01:47:32;;;;;;;22.20;11.80;;;;;;;7.40;100.00;101976.23;109794;1265;21970;-78
2023/12/17 01:50:07;;;;;;;21.40;11.20;;;;;;;7.40;100.00;101975.20;110106;1265;21972;-79
2023/12/17 01:52:40;;;;;;;17.90;10.80;;;;;;;7.43;100.00;101969.31;110081;1265;23455;-78
2023/12/17 01:55:17;;;;;;;16.80;10.10;;;;;;;7.44;100.00;101969.48;110115;1259;21986;-77
2023/12/17 01:57:51;;;;;;;17.10;10.30;;;;;;;7.44;100.00;101971.22;110110;1265;21973;-78
2023/12/17 02:00:23;;;;;;;20.30;11.10;;;;;;;7.45;100.00;101972.44;109565;1266;22036;-78
2023/12/17 02:02:53;;;;;;;14.10;10.70;;;;;;;7.46;100.00;101971.75;109435;1270;22471;-76
2023/12/17 02:05:25;;;;;;;;;;;;;;;7.48;100.00;101965.35;109819;1267;22422;-77
2023/12/17 02:07:57;;;;;;;18.50;9.50;;;;;;;7.39;100.00;101957.36;109901;1267;23646;-77
2023/12/17 02:10:28;;;;;;;20.00;11.50;;;;;;;7.37;100.00;101961.34;109613;1267;21967;-77
2023/12/17 02:13:03;;;;;;;18.70;10.00;;;;;;;7.37;100.00;101965.32;109885;1267;23731;-78
2023/12/17 02:15:36;;;;;;;18.30;10.50;;;;;;;7.35;100.00;101955.80;109274;1272;22323;-77
2023/12/17 02:18:06;;;;;;;16.40;10.50;;;;;;;7.44;100.00;101960.31;109496;1266;23042;-78
2023/12/17 02:20:39;;;;;;;16.70;10.70;;;;;;;7.46;100.00;101953.39;109988;1259;21964;-78
2023/12/17 02:23:21;;;;;;;13.90;10.60;;;;;;;7.47;100.00;101954.42;110565;1259;23819;-77
2023/12/17 02:25:54;;;;;;;14.30;9.40;;;;;;;7.47;100.00;101949.91;110725;1259;21973;-77
2023/12/17 02:28:24;;;;;;;17.40;10.60;;;;;;;7.47;100.00;101951.13;110623;1259;22946;-77
2023/12/17 02:30:56;;;;;;;17.40;10.20;;;;;;;7.48;100.00;101950.61;110739;1259;22045;-77
2023/12/17 02:33:28;;;;;;;18.20;10.20;;;;;;;7.48;100.00;101953.73;110384;1260;22005;-78
2023/12/17 02:36:04;;;;;;;22.70;11.30;;;;;;;7.48;100.00;101948.54;110567;1249;21974;-77
2023/12/17 02:38:41;;;;;;;18.80;10.10;;;;;;;7.48;100.00;101947.16;109751;1254;214390;-78
2023/12/17 02:41:16;;;;;;;15.10;10.20;;;;;;;7.48;100.00;101952.70;110231;1266;22213;-78
2023/12/17 02:43:48;;;;;;;18.50;10.50;;;;;;;7.50;100.00;101963.09;109965;1266;22188;-77
2023/12/17 02:46:24;;;;;;;14.60;10.00;;;;;;;7.51;100.00;101963.10;110089;1266;24292;-78
2023/12/17 02:49:01;;;;;;;17.00;10.70;;;;;;;7.51;100.00;101954.25;109873;1270;23693;-78
2023/12/17 02:51:34;;;;;;;15.10;10.80;;;;;;;7.48;100.00;101951.14;109456;1268;23035;-77
2023/12/17 02:54:06;;;;;;;26.60;17.30;;;;;;;7.52;100.00;101959.45;109518;1270;22012;-77
2023/12/17 02:56:40;;;;;;;26.30;17.00;;;;;;;7.52;100.00;101966.04;109858;1265;21985;-78
2023/12/17 02:59:12;;;;;;;21.80;13.20;;;;;;;7.55;100.00;101979.04;110368;1259;21961;-77
2023/12/17 03:01:44;;;;;;;21.30;12.30;;;;;;;7.57;100.00;101984.23;110552;1259;23044;-76
2023/12/17 03:04:17;;;;;;;16.20;12.00;;;;;;;7.58;100.00;101983.01;110601;1259;21971;-76
2023/12/17 03:06:47;;;;;;;15.00;11.30;;;;;;;7.59;100.00;101985.63;110903;1254;21966;-80
2023/12/17 03:09:19;;;;;;;19.20;12.20;;;;;;;7.62;100.00;101982.84;110755;1254;21961;-77
2023/12/17 03:11:54;;;;;;;15.80;10.50;;;;;;;7.63;100.00;101980.25;111019;1255;23647;-75
2023/12/17 03:14:25;;;;;;;22.30;13.90;;;;;;;7.65;100.00;101978.68;111051;1254;21996;-78
2023/12/17 03:17:02;;;;;;;15.90;10.70;;;;;;;7.64;100.00;101979.89;111069;1254;22044;-77
2023/12/17 03:19:34;;;;;;;19.90;11.80;;;;;;;7.64;100.00;101981.12;110726;1259;21997;-77
2023/12/17 03:22:04;;;;;;;18.50;11.40;;;;;;;7.65;100.00;101980.95;110754;1259;21984;-77
2023/12/17 03:24:34;;;;;;;15.40;11.00;;;;;;;7.64;100.00;101981.11;110107;1264;23707;-78
2023/12/17 03:27:06;;;;;;;19.10;11.40;;;;;;;7.65;100.00;101983.20;110077;1264;23211;-77
2023/12/17 03:29:40;;;;;;;20.10;11.00;;;;;;;7.64;100.00;101989.43;110293;1264;22044;-77
2023/12/17 03:32:10;;;;;;;17.40;12.70;;;;;;;7.63;100.00;101991.85;110263;1261;23696;-77
2023/12/17 03:34:43;;;;;;;15.10;10.70;;;;;;;7.64;100.00;101988.55;110363;1264;23267;-77
2023/12/17 03:37:13;;;;;;;17.40;12.00;;;;;;;7.64;100.00;101984.58;110254;1264;22400;-76
2023/12/17 03:39:45;;;;;;;21.00;12.70;;;;;;;7.64;100.00;101984.58;110330;1264;22926;-77
2023/12/17 03:42:15;;;;;;;14.80;11.70;;;;;;;7.63;100.00;101990.83;110040;1264;23019;-76
2023/12/17 03:44:47;;;;;;;15.90;11.60;;;;;;;7.63;100.00;101988.73;110051;1260;21971;-76
2023/12/17 03:47:17;;;;;;;14.40;10.00;;;;;;;7.64;100.00;101993.25;110441;1251;23750;-77
2023/12/17 03:49:55;;;;;;;20.30;11.40;;;;;;;7.64;100.00;101993.77;110960;1254;23615;-78
2023/12/17 03:52:30;;;;;;;19.70;11.70;;;;;;;7.64;100.00;101987.70;110692;1259;21963;-76
2023/12/17 03:55:00;;;;;;;14.80;10.80;;;;;;;7.65;100.00;101984.41;110500;1258;23609;-78
2023/12/17 03:57:40;;;;;;;16.00;11.40;;;;;;;7.66;100.00;101986.66;110549;1259;23660;-76
2023/12/17 04:00:15;;;;;;;13.40;10.20;;;;;;;7.67;100.00;101986.14;110742;1259;24295;-77
2023/12/17 04:02:47;;;;;;;16.20;10.50;;;;;;;7.69;100.00;101983.36;110443;1264;21968;-77
2023/12/17 04:05:26;;;;;;;18.10;10.90;;;;;;;7.69;100.00;101976.09;110077;1264;21964;-75
2023/12/17 04:07:58;;;;;;;15.80;10.80;;;;;;;7.68;100.00;101978.52;110016;1264;21990;-76
2023/12/17 04:10:31;;;;;;;19.60;10.90;;;;;;;7.67;100.00;101973.48;109847;1261;23024;-77
2023/12/17 04:13:05;;;;;;;18.00;11.90;;;;;;;7.67;100.00;101972.45;109778;1266;24171;-82
2023/12/17 04:15:35;;;;;;;15.80;10.70;;;;;;;7.66;100.00;101967.07;109766;1266;22767;-83
2023/12/17 04:18:04;;;;;;;16.90;11.20;;;;;;;7.66;100.00;101966.04;110303;1266;21979;-81
2023/12/17 04:20:35;;;;;;;24.80;18.00;;;;;;;7.66;100.00;101961.88;109839;1270;23096;-83
2023/12/17 04:23:07;;;;;;;13.40;10.40;;;;;;;7.68;100.00;101968.45;109210;1275;21985;-83
2023/12/17 04:25:39;;;;;;;14.40;10.50;;;;;;;7.69;100.00;101972.80;109047;1278;22760;-82
2023/12/17 04:28:09;;;;;;;15.40;11.60;;;;;;;7.70;100.00;101979.39;108937;1276;23082;-83
2023/12/17 04:30:42;;;;;;;13.80;10.10;;;;;;;7.71;100.00;101977.83;109167;1276;22061;-83
2023/12/17 04:33:13;;;;;;;16.00;11.20;;;;;;;7.71;100.00;101974.19;109109;1276;21997;-83
2023/12/17 04:35:47;;;;;;;20.60;11.20;;;;;;;7.71;100.00;101970.20;109172;1276;24324;-83
2023/12/17 04:38:22;;;;;;;15.20;10.30;;;;;;;7.70;100.00;101969.16;109278;1274;21995;-82
2023/12/17 04:40:52;;;;;;;16.80;10.90;;;;;;;7.71;100.00;101969.16;109560;1268;21998;-83
2023/12/17 04:43:28;;;;;;;15.90;11.20;;;;;;;7.72;100.00;101969.67;110294;1260;22071;-84
2023/12/17 04:46:01;;;;;;;13.90;10.60;;;;;;;7.73;100.00;101967.60;110865;1255;21960;-84
2023/12/17 04:48:31;;;;;;;16.90;12.40;;;;;;;7.73;100.00;101966.21;110793;1260;21973;-82
2023/12/17 04:51:02;;;;;;;18.40;12.10;;;;;;;7.74;100.00;101961.18;110368;1266;21976;-82
2023/12/17 04:53:35;;;;;;;15.10;11.40;;;;;;;7.74;100.00;101964.30;110370;1257;22664;-83
2023/12/17 04:56:12;;;;;;;15.20;11.60;;;;;;;7.75;100.00;101962.40;110255;1264;21996;-81
2023/12/17 04:58:43;;;;;;;15.00;11.30;;;;;;;7.77;100.00;101965.00;110462;1266;22621;-84
2023/12/17 05:01:15;;;;;;;15.10;9.60;;;;;;;7.78;100.00;101961.88;109632;1271;22021;-82
2023/12/17 05:03:47;;;;;;;16.90;10.40;;;;;;;7.80;100.00;101967.77;109832;1270;23768;-83
2023/12/17 05:06:19;;;;;;;16.20;11.30;;;;;;;7.81;100.00;101976.27;109674;1267;22985;-83
2023/12/17 05:08:49;;;;;;;16.60;12.30;;;;;;;7.82;100.00;101981.29;110287;1261;22464;-85
2023/12/17 05:11:21;;;;;;;15.40;10.70;;;;;;;7.84;100.00;101985.79;110850;1262;21974;-81
2023/12/17 05:13:53;;;;;;;16.70;11.40;;;;;;;7.85;100.00;101995.50;110664;1259;23033;-82
2023/12/17 05:16:25;;;;;;;18.30;11.00;;;;;;;7.86;100.00;102001.05;110611;1262;23097;-82
2023/12/17 05:18:55;;;;;;;16.90;10.50;;;;;;;7.87;100.00;101998.97;110609;1255;21999;-84
2023/12/17 05:21:28;;;;;;;15.00;11.20;;;;;;;7.88;100.00;101995.84;111381;1255;21969;-84
2023/12/17 05:24:08;;;;;;;16.10;11.60;;;;;;;7.89;100.00;101998.96;111257;1250;21999;-83
2023/12/17 05:26:47;;;;;;;19.10;13.00;;;;;;;7.90;100.00;101999.14;110726;1259;22040;-84
2023/12/17 05:29:19;;;;;;;19.80;12.20;;;;;;;7.91;100.00;101998.27;110767;1259;21966;-84
2023/12/17 05:31:52;;;;;;;18.40;11.40;;;;;;;7.91;100.00;101997.05;110909;1259;21988;-83
2023/12/17 05:34:25;;;;;;;15.40;10.80;;;;;;;7.91;100.00;101995.50;110353;1264;21973;-83
2023/12/17 05:37:06;;;;;;;23.10;14.30;;;;;;;7.92;100.00;101992.90;109622;1268;23592;-84
2023/12/17 05:39:36;;;;;;;17.40;11.70;;;;;;;7.92;100.00;101994.46;109722;1271;22385;-81
2023/12/17 05:42:08;;;;;;;15.70;11.70;;;;;;;7.94;100.00;101994.46;109824;1271;21977;-81
2023/12/17 05:44:49;;;;;;;17.70;12.50;;;;;;;7.93;100.00;101992.90;109309;1273;21989;-82
2023/12/17 05:47:19;;;;;;;15.30;11.20;;;;;;;7.94;100.00;101989.25;109488;1273;21999;-81
2023/12/17 05:49:49;;;;;;;21.10;13.90;;;;;;;7.87;100.00;101972.80;109525;1273;22304;-85
2023/12/17 05:52:20;;;;;;;23.60;13.70;;;;;;;7.90;100.00;101979.54;109120;1274;21988;-82
2023/12/17 05:54:55;;;;;;;21.10;12.90;;;;;;;7.90;100.00;101978.68;109217;1273;21985;-82
2023/12/17 05:57:36;;;;;;;17.60;11.70;;;;;;;7.89;100.00;101985.61;109588;1273;21984;-82
2023/12/17 06:00:17;;;;;;;14.20;12.40;;;;;;;7.86;100.00;101985.27;109609;1268;23742;-84
2023/12/17 06:03:00;;;;;;;17.90;13.60;;;;;;;7.86;100.00;101976.27;109943;1267;24929;-83
2023/12/17 06:05:32;;;;;;;20.70;13.20;;;;;;;7.88;100.00;101969.16;110006;1267;22062;-82
2023/12/17 06:08:07;;;;;;;17.70;13.60;;;;;;;7.88;100.00;101963.42;110244;1267;21972;-82
2023/12/17 06:10:42;;;;;;;21.30;13.80;;;;;;;7.87;100.00;101966.91;110255;1267;23736;-83
2023/12/17 06:13:16;;;;;;;19.50;12.70;;;;;;;7.86;100.00;101972.98;110259;1267;21976;-83
2023/12/17 06:15:47;;;;;;;19.70;13.20;;;;;;;7.86;100.00;101973.67;110360;1266;23033;-83
2023/12/17 06:18:23;;;;;;;18.70;11.90;;;;;;;7.82;100.00;101974.02;110721;1262;21988;-83
2023/12/17 06:20:54;;;;;;;19.50;13.70;;;;;;;7.82;100.00;101974.35;110697;1261;21974;-81
2023/12/17 06:23:27;;;;;;;19.40;11.80;;;;;;;7.83;100.00;101972.79;110917;1261;22046;-82
2023/12/17 06:26:00;;;;;;;18.70;14.20;;;;;;;7.83;100.00;101971.23;110930;1260;23592;-82
2023/12/17 06:28:35;;;;;;;18.90;14.80;;;;;;;7.84;100.00;101973.65;110929;1260;22157;-81
2023/12/17 06:31:10;;;;;;;19.20;14.00;;;;;;;7.85;100.00;101974.88;110665;1260;24672;-82
2023/12/17 06:33:44;;;;;;;16.90;13.30;;;;;;;7.86;100.00;101976.43;110833;1260;23204;-81
2023/12/17 06:36:18;;;;;;;16.70;12.40;;;;;;;7.86;100.00;101974.17;110771;1260;21968;-82
2023/12/17 06:38:51;;;;;;;16.00;12.30;;;;;;;7.85;100.00;101975.73;110996;1259;22005;-81
2023/12/17 06:41:24;;;;;;;20.20;14.00;;;;;;;7.84;100.00;101975.23;110894;1260;23722;-81
2023/12/17 06:43:54;;;;;;;20.40;16.50;;;;;;;7.85;100.00;101984.06;110901;1260;23695;-81
2023/12/17 06:46:25;;;;;;;;;;;;;;;7.88;100.00;101987.35;111298;1254;21950;-83
2023/12/17 06:48:57;;;;;;;17.70;13.20;;;;;;;7.80;100.00;101995.67;111427;1254;21949;-81
2023/12/17 06:51:39;;;;;;;17.50;13.00;;;;;;;7.80;100.00;101994.98;111393;1254;22729;-82
2023/12/17 06:54:12;;;;;;;22.00;12.80;;;;;;;7.84;100.00;102000.69;111189;1254;21966;-81
2023/12/17 06:56:45;;;;;;;17.80;12.10;;;;;;;7.88;100.00;102004.68;111412;1254;22979;-81
2023/12/17 06:59:18;;;;;;;19.20;12.70;;;;;;;7.89;100.00;102004.86;111560;1254;21947;-80
2023/12/17 07:01:54;;;;;;;18.40;12.20;;;;;;;7.88;100.00;102008.15;110774;1261;23052;-83
2023/12/17 07:04:28;;;;;;;19.60;12.60;;;;;;;7.90;100.00;102010.07;110823;1261;23722;-82
2023/12/17 07:07:03;;;;;;;15.90;11.70;;;;;;;7.91;100.00;102004.17;110784;1261;23580;-82
2023/12/17 07:09:42;;;;;;;17.40;11.80;;;;;;;7.90;100.00;101998.45;110771;1262;21948;-83
2023/12/17 07:12:17;;;;;;;15.30;11.70;;;;;;;7.90;100.00;102000.87;110429;1266;21979;-82
2023/12/17 07:14:53;;;;;;;18.40;12.30;;;;;;;7.89;100.00;102002.59;110250;1266;22381;-84
2023/12/17 07:17:36;;;;;;;16.70;11.90;;;;;;;7.88;100.00;102003.30;110077;1266;23628;-83
2023/12/17 07:20:24;;;;;;;19.20;12.20;;;;;;;7.89;100.00;102002.77;109945;1265;22960;-83
2023/12/17 07:23:14;;;;;;;14.90;11.50;;;;;;;7.90;100.00;102002.27;110243;1268;23805;-83
2023/12/17 07:25:47;;;;;;;17.20;11.70;;;;;;;7.91;100.00;102004.52;109300;1274;22005;-83
2023/12/17 07:28:21;;;;;;;15.50;12.60;;;;;;;7.91;100.00;102013.52;109279;1274;22011;-82
2023/12/17 07:31:00;;;;;;;15.80;10.70;;;;;;;7.91;100.00;102010.58;109649;1270;22092;-81
2023/12/17 07:33:34;;;;;;;15.40;10.70;;;;;;;7.91;100.00;102009.02;109747;1269;22014;-84
2023/12/17 07:36:13;;;;;;;14.10;12.00;;;;;;;7.93;100.00;102008.49;110042;1269;22055;-82
2023/12/17 07:38:49;;;;;;;15.70;11.90;;;;;;;7.95;100.00;102006.94;109469;1272;22959;-82
2023/12/17 07:41:41;;;;;;;18.20;13.10;;;;;;;7.94;100.00;102009.88;109924;1267;24524;-82
2023/12/17 07:44:18;;;;;;;14.70;11.30;;;;;;;7.92;100.00;102012.31;109921;1267;21984;-84
2023/12/17 07:46:54;;;;;;;15.80;11.40;;;;;;;7.91;100.00;102007.98;110358;1267;23718;-81
2023/12/17 07:49:29;;;;;;;17.60;13.10;;;;;;;7.92;100.00;102002.10;109802;1267;21983;-83
2023/12/17 07:52:09;;;;;;;18.40;12.50;;;;;;;7.93;100.00;102000.00;110259;1267;21996;-81
2023/12/17 07:54:43;;;;;;;12.80;11.40;;;;;;;7.93;100.00;101998.45;109923;1267;21940;-82
2023/12/17 07:57:24;;;;;;;14.90;12.10;;;;;;;7.92;100.00;102000.53;110326;1263;21975;-83
2023/12/17 08:00:03;;;;;;;15.40;12.90;;;;;;;7.93;100.00;102002.96;110632;1260;21970;-83
2023/12/17 08:02:52;;;;;;;16.20;12.00;;;;;;;7.92;100.00;102002.24;111063;1255;21963;-84
2023/12/17 08:05:40;;;;;;;16.00;12.30;;;;;;;7.92;100.00;102007.63;111198;1247;22711;-82
2023/12/17 08:08:37;;;;;;;14.80;12.50;;;;;;;7.92;100.00;102016.64;111393;1255;21965;-84
2023/12/17 08:11:19;;;;;;;15.90;13.00;;;;;;;7.92;100.00;102022.72;111414;1244;23473;-82
2023/12/17 08:14:07;;;;;;;17.50;13.70;;;;;;;7.94;100.00;102028.95;111305;1253;21990;-82
2023/12/17 08:17:04;;;;;;;;;;;;;;;;;;;;;
2023/12/17 08:19:46;;;;;;;18.40;14.60;;;;;;;7.97;100.00;102029.82;111588;1255;22967;-83
2023/12/17 08:22:24;;;;;;;34.20;30.50;;;;;;;7.98;100.00;102029.82;111597;1253;23014;-84
2023/12/17 08:25:07;;;;;;;19.30;15.50;;;;;;;8.00;100.00;102031.72;111350;1255;21944;-84
2023/12/17 08:31:00;;;;;;;21.00;15.40;;;;;;;8.01;100.00;102029.98;110873;1262;22002;-81
2023/12/17 08:34:11;;;;;;;17.20;13.30;;;;;;;8.02;100.00;102026.52;110546;1262;21977;-80
2023/12/17 08:36:58;;;;;;;;;;;;;;;;;;;;;
2023/12/17 08:40:11;;;;;;;17.20;14.60;;;;;;;8.09;100.00;102033.12;110904;1262;21976;-84
2023/12/17 08:43:00;;;;;;;17.40;14.70;;;;;;;8.12;100.00;102036.23;110323;1261;23032;-82
2023/12/17 08:46:03;;;;;;;17.80;13.70;;;;;;;8.15;100.00;102043.16;109896;1266;22733;-81
2023/12/17 08:49:04;;;;;;;15.60;12.80;;;;;;;8.17;100.00;102052.36;110329;1267;23734;-80
2023/12/17 08:52:06;;;;;;;17.80;12.70;;;;;;;8.17;100.00;102060.86;110319;1266;22055;-82
2023/12/17 08:55:05;;;;;;;15.60;14.00;;;;;;;8.16;100.00;102066.75;110127;1266;21976;-81
2023/12/17 08:57:55;;;;;;;18.60;13.80;;;;;;;8.16;100.00;102069.53;110274;1266;22388;-82
2023/12/17 09:01:00;;;;;;;14.70;13.20;;;;;;;8.18;100.00;102063.98;110146;1261;21986;-80
2023/12/17 09:04:31;;;;;;;20.40;14.70;;;;;;;8.16;100.00;102059.11;110009;1269;22012;-82
2023/12/17 09:07:24;;;;;;;16.90;15.10;;;;;;;8.15;100.00;102056.86;109935;1269;21976;-81
2023/12/17 09:10:06;;;;;;;18.20;15.10;;;;;;;8.18;100.00;102058.08;109594;1271;23602;-82
2023/12/17 09:12:48;;;;;;;18.70;15.40;;;;;;;8.20;100.00;102048.02;109337;1272;21980;-84
2023/12/17 09:16:07;;;;;;;19.90;15.10;;;;;;;8.21;100.00;102043.69;109401;1272;22345;-81
2023/12/17 09:19:54;;;;;;;;;;;;;;;;;;;;;
2023/12/17 09:22:45;;;;;;;;;;;;;;;;;;;;;
2023/12/17 09:26:02;;;;;;;;;;;;;;;;;;;;;
2023/12/17 09:28:53;;;;;;;19.40;16.50;;;;;;;8.15;100.00;102037.62;107623;1295;22058;-79
2023/12/17 09:31:34;;;;;;;23.80;17.90;;;;;;;8.18;100.00;102036.73;107785;1292;22017;-81
2023/12/17 09:34:40;;;;;;;24.60;16.60;;;;;;;8.19;100.00;102033.09;107732;1295;23816;-81
2023/12/17 09:37:17;;;;;;;21.20;18.50;;;;;;;8.21;100.00;102033.80;107941;1292;22009;-83
2023/12/17 09:40:35;;;;;;;;;;;;;;;;;;;;;
2023/12/17 09:43:44;;;;;;;23.60;18.20;;;;;;;8.23;100.00;102030.31;108546;1286;22020;-82
2023/12/17 09:46:59;;;;;;;22.10;19.30;;;;;;;8.22;100.00;102022.68;108521;1286;23682;-82
2023/12/17 09:49:55;;;;;;;24.10;17.10;;;;;;;8.25;100.00;102022.68;108237;1292;23692;-83
2023/12/17 09:52:43;;;;;;;20.00;17.70;;;;;;;8.26;100.00;102026.15;108052;1292;22000;-84
2023/12/17 09:55:17;;;;;;;20.00;17.70;;;;;;;8.26;100.00;102030.48;108420;1284;23680;-81
2023/12/17 09:58:08;;;;;;;30.30;26.90;;;;;;;8.24;100.00;102029.64;108634;1280;22011;-80
2023/12/17 10:01:02;;;;;;;23.20;19.20;;;;;;;8.23;100.00;102031.72;109313;1274;21998;-78
2023/12/17 10:03:39;;;;;;;26.40;21.50;;;;;;;8.23;100.00;102031.70;109212;1275;22000;-82
2023/12/17 10:06:11;;;;;;;24.80;22.10;;;;;;;8.22;100.00;102037.44;109846;1268;22899;-82
2023/12/17 10:08:42;;;;;;;26.60;23.40;;;;;;;8.21;100.00;102034.48;109686;1272;21998;-82
2023/12/17 10:11:26;;;;;;;23.40;20.80;;;;;;;8.15;100.00;102033.79;109665;1272;23034;-85
2023/12/17 10:13:59;;;;;;;29.30;23.00;;;;;;;8.15;100.00;102037.61;109623;1270;21997;-82
2023/12/17 10:17:05;;;;;;;26.70;23.10;;;;;;;8.11;100.00;102035.02;110343;1266;23300;-81
2023/12/17 10:19:46;;;;;;;36.70;30.10;;;;;;;8.07;100.00;102038.13;110179;1266;22786;-83
2023/12/17 10:22:26;;;;;;;30.20;27.10;;;;;;;8.05;100.00;102037.09;110891;1261;23657;-82
2023/12/17 10:24:57;;;;;;;30.70;25.80;;;;;;;8.04;100.00;102033.11;110863;1261;23716;-82
2023/12/17 10:27:38;;;;;;;26.50;21.80;;;;;;;8.05;100.00;102036.93;111099;1255;23707;-81
2023/12/17 10:30:12;;;;;;;27.90;25.00;;;;;;;8.04;100.00;102032.60;110790;1262;23416;-82
2023/12/17 10:32:45;;;;;;;34.70;30.70;;;;;;;8.02;100.00;102031.73;110754;1262;21939;-81
2023/12/17 10:35:29;;;;;;;31.80;27.30;;;;;;;8.04;100.00;102029.46;110721;1262;21998;-81
2023/12/17 10:38:14;;;;;;;26.80;23.90;;;;;;;8.04;100.00;102026.00;110911;1257;21971;-82
2023/12/17 10:40:49;;;;;;;29.90;25.20;;;;;;;8.01;100.00;102019.93;110671;1262;22001;-82
2023/12/17 10:43:33;;;;;;;28.60;25.50;;;;;;;7.98;100.00;102021.67;110726;1262;21999;-82
2023/12/17 10:46:18;;;;;;;30.60;26.20;;;;;;;7.96;100.00;102023.93;110696;1262;23622;-83
2023/12/17 10:48:52;;;;;;;28.40;25.40;;;;;;;7.96;100.00;102022.89;110198;1262;24435;-80
2023/12/17 10:51:25;;;;;;;27.70;24.90;;;;;;;7.97;100.00;102018.38;110894;1262;21988;-81
2023/12/17 10:53:58;;;;;;;29.50;26.20;;;;;;;7.98;100.00;102017.52;110911;1262;22980;-82
2023/12/17 10:56:34;;;;;;;31.90;25.70;;;;;;;7.99;100.00;102016.64;110333;1267;23638;-82
2023/12/17 10:59:13;;;;;;;33.00;26.10;;;;;;;8.00;100.00;102014.04;110171;1267;22714;-83
2023/12/17 11:02:15;;;;;;;35.80;29.20;;;;;;;7.99;100.00;102012.48;109659;1271;21979;-82
2023/12/17 11:04:56;;;;;;;38.40;34.20;;;;;;;8.00;100.00;102007.63;109108;1277;22006;-82
2023/12/17 11:07:33;;;;;;;38.70;31.20;;;;;;;8.00;100.00;102004.85;109316;1273;22037;-83
2023/12/17 11:10:15;;;;;;;32.40;28.90;;;;;;;8.00;100.00;101998.62;109328;1273;22160;-81
2023/12/17 11:13:02;;;;;;;32.00;27.10;;;;;;;7.99;100.00;101993.41;109197;1277;22000;-83
2023/12/17 11:15:38;;;;;;;32.10;26.20;;;;;;;7.98;100.00;101988.90;109164;1277;21990;-80
2023/12/17 11:18:11;;;;;;;42.40;33.10;;;;;;;7.98;100.00;101984.58;109231;1277;21987;-82
2023/12/17 11:20:45;;;;;;;39.80;30.00;;;;;;;7.98;100.00;101983.36;109417;1273;22950;-80
2023/12/17 11:23:19;;;;;;;35.80;32.00;;;;;;;7.99;100.00;101983.70;109788;1267;24311;-82
2023/12/17 11:26:03;;;;;;;26.90;23.50;;;;;;;8.00;100.00;101989.59;110343;1261;21993;-83
2023/12/17 11:28:46;;;;;;;27.70;24.90;;;;;;;7.99;100.00;101992.38;110724;1260;22722;-82
2023/12/17 11:31:19;;;;;;;28.00;25.00;;;;;;;8.01;100.00;101997.57;111142;1254;22970;-80
2023/12/17 11:33:55;;;;;;;26.90;23.50;;;;;;;8.02;100.00;101999.13;111373;1255;22166;-81
2023/12/17 11:36:32;;;;;;;29.30;25.00;;;;;;;8.00;100.00;101999.31;111385;1254;21984;-81
2023/12/17 11:39:10;;;;;;;28.20;25.20;;;;;;;7.99;100.00;102000.69;110992;1259;21969;-83
2023/12/17 11:41:42;;;;;;;29.10;25.30;;;;;;;7.98;100.00;102002.25;110866;1259;23625;-83
2023/12/17 11:44:17;;;;;;;28.20;24.40;;;;;;;7.99;100.00;101997.05;110979;1259;21976;-83
2023/12/17 11:46:57;;;;;;;30.00;24.80;;;;;;;7.94;100.00;101990.82;110481;1265;22229;-83
2023/12/17 11:49:36;;;;;;;27.80;25.00;;;;;;;7.95;100.00;101995.66;110377;1264;22031;-84
2023/12/17 11:52:11;;;;;;;27.80;25.00;;;;;;;7.95;100.00;101992.89;110353;1265;22726;-81
2023/12/17 11:55:03;;;;;;;31.00;27.30;;;;;;;7.95;100.00;101989.08;110639;1265;21978;-83
2023/12/17 11:57:35;;;;;;;31.40;27.60;;;;;;;7.95;100.00;101988.91;110514;1261;21980;-80
2023/12/17 12:00:18;;;;;;;27.30;24.30;;;;;;;7.96;100.00;101983.54;110824;1261;22442;-82
2023/12/17 12:03:10;;;;;;;28.50;25.50;;;;;;;7.94;100.00;101972.27;110695;1261;22060;-82
2023/12/17 12:05:47;;;;;;;29.20;26.30;;;;;;;7.95;100.00;101964.11;111033;1254;22285;-83
2023/12/17 12:08:28;;;;;;;30.20;27.20;;;;;;;7.97;100.00;101961.52;111224;1254;21965;-82